Time;durP1;ratioP1;P1;durP2;ratioP2;P2;SDS_P1;SDS_P2;PMS_P1;PMS_P2;Temp;Humidity;BMP_temperature;BMP_pressure;BME280_temperature;BME280_humidity;BME280_pressure;Samples;Min_cycle;Max_cycle;Signal;HPM_P1;HPM_P2
2022/04/27 00:00:17;;;;;;;;;;;;;;;5.99;96.42;97172.75;30001;982;1854;-59
2022/04/27 00:00:48;;;;;;;;;;;;;;;5.99;96.46;97175.44;30001;982;1872;-57
2022/04/27 00:01:18;;;;;;;;;;;;;;;6.00;96.51;97171.69;30001;982;1876;-60
2022/04/27 00:01:49;;;;;;;;;;;;;;;6.01;96.49;97170.63;30001;982;1855;-60
2022/04/27 00:02:20;;;;;;;;;;;;;;;6.02;96.57;97176.81;30001;982;1872;-58
2022/04/27 00:02:51;;;;;;;;;;;;;;;6.00;96.62;97179.78;30001;983;1876;-58
2022/04/27 00:03:22;;;;;;;;;;;;;;;6.00;96.59;97174.38;30001;983;1876;-57
2022/04/27 00:03:52;;;;;;;;;;;;;;;6.01;96.48;97170.63;30001;983;1876;-57
2022/04/27 00:04:24;;;;;;;;;;;;;;;6.00;96.85;97177.06;30001;983;1854;-57
2022/04/27 00:04:55;;;;;;;;;;;;;;;6.01;96.77;97169.81;30001;983;1872;-59
2022/04/27 00:05:26;;;;;;;;;;;;;;;6.02;96.50;97171.44;30001;985;1876;-61
2022/04/27 00:06:00;;;;;;;;;;;;;;;6.02;96.71;97171.44;30001;983;1876;-57
2022/04/27 00:06:32;;;;;;;;;;;;;;;6.02;96.69;97169.56;30001;983;1876;-58
2022/04/27 00:07:06;;;;;;;;;;;;;;;6.01;96.57;97176.00;30001;983;1876;-60
2022/04/27 00:07:37;;;;;;;;;;;;;;;6.00;96.49;97169.00;30001;983;1876;-59
2022/04/27 00:08:08;;;;;;;;;;;;;;;6.00;96.59;97171.69;30001;982;1854;-60
2022/04/27 00:08:39;;;;;;;;;;;;;;;6.00;96.88;97169.00;30001;982;1872;-58
2022/04/27 00:09:11;;;;;;;;;;;;;;;5.99;96.93;97170.06;30001;982;1877;-60
2022/04/27 00:09:42;;;;;;;;;;;;;;;5.97;96.77;97169.50;30001;982;1877;-58
2022/04/27 00:10:13;;;;;;;;;;;;;;;5.97;97.05;97174.06;30001;983;1876;-57
2022/04/27 00:10:44;;;;;;;;;;;;;;;5.96;96.81;97167.06;30001;983;1876;-57
2022/04/27 00:11:15;;;;;;;;;;;;;;;5.96;97.09;97178.66;30001;983;1876;-58
2022/04/27 00:11:46;;;;;;;;;;;;;;;5.96;97.29;97173.25;30001;983;1876;-59
2022/04/27 00:12:17;;;;;;;;;;;;;;;5.96;97.23;97170.56;30001;983;1876;-60
2022/04/27 00:12:49;;;;;;;;;;;;;;;5.96;97.13;97175.97;30001;983;1854;-57
2022/04/27 00:13:20;;;;;;;;;;;;;;;5.95;97.24;97170.81;30001;983;1872;-57
2022/04/27 00:13:51;;;;;;;;;;;;;;;5.95;96.99;97177.03;30001;983;1876;-60
2022/04/27 00:14:23;;;;;;;;;;;;;;;5.94;97.08;97175.41;30001;984;1872;-60
2022/04/27 00:14:57;;;;;;;;;;;;;;;5.94;96.88;97175.41;30001;982;1876;-62
2022/04/27 00:15:28;;;;;;;;;;;;;;;5.92;97.12;97172.16;30001;982;1876;-59
2022/04/27 00:16:00;;;;;;;;;;;;;;;5.92;97.11;97176.72;30001;982;1741;-57
2022/04/27 00:16:32;;;;;;;;;;;;;;;5.91;97.12;97170.53;30001;982;1872;-60
2022/04/27 00:17:03;;;;;;;;;;;;;;;5.92;97.09;97177.53;30001;982;1877;-60
2022/04/27 00:17:34;;;;;;;;;;;;;;;5.92;97.18;97180.22;30001;982;1877;-57
2022/04/27 00:18:05;;;;;;;;;;;;;;;5.92;97.33;97177.53;30001;983;1876;-60
2022/04/27 00:18:38;;;;;;;;;;;;;;;5.93;97.05;97173.78;30001;983;1876;-57
2022/04/27 00:19:11;;;;;;;;;;;;;;;5.94;97.17;97174.59;30001;983;1876;-58
2022/04/27 00:19:47;;;;;;;;;;;;;;;5.94;97.16;97175.41;30001;986;1872;-59
2022/04/27 00:20:18;;;;;;;;;;;;;;;5.95;97.12;97170.81;30001;983;1876;-62
2022/04/27 00:20:54;;;;;;;;;;;;;;;5.96;97.10;97173.25;30001;983;1854;-59
2022/04/27 00:21:25;;;;;;;;;;;;;;;5.98;96.97;97179.22;30001;983;1872;-58
2022/04/27 00:21:56;;;;;;;;;;;;;;;6.00;97.04;97169.00;30001;982;1876;-61
2022/04/27 00:22:27;;;;;;;;;;;;;;;6.02;96.80;97171.44;30001;982;1876;-57
2022/04/27 00:22:59;;;;;;;;;;;;;;;6.03;96.91;97179.25;30001;982;1876;-57
2022/04/27 00:23:32;;;;;;;;;;;;;;;6.03;96.76;97176.56;30001;982;1876;-57
2022/04/27 00:24:03;;;;;;;;;;;;;;;6.05;96.67;97176.31;30001;982;1877;-59
2022/04/27 00:24:39;;;;;;;;;;;;;;;6.08;96.50;97177.69;30001;982;1877;-58
2022/04/27 00:25:10;;;;;;;;;;;;;;;6.09;96.45;97176.59;30001;984;1775;-57
2022/04/27 00:25:41;;;;;;;;;;;;;;;6.09;96.17;97172.03;30001;983;1876;-58
2022/04/27 00:26:11;;;;;;;;;;;;;;;6.10;96.10;97172.84;30001;983;1854;-57
2022/04/27 00:26:42;;;;;;;;;;;;;;;6.11;95.99;97166.37;30001;983;1871;-58
2022/04/27 00:27:14;;;;;;;;;;;;;;;6.11;96.01;97164.50;30001;983;1876;-60
2022/04/27 00:27:46;;;;;;;;;;;;;;;6.12;95.71;97168.00;30001;983;1876;-59
2022/04/27 00:28:16;;;;;;;;;;;;;;;6.12;95.53;97168.81;30001;983;1876;-58
2022/04/27 00:28:47;;;;;;;;;;;;;;;6.14;95.57;97163.19;30001;983;1876;-58
2022/04/27 00:29:18;;;;;;;;;;;;;;;6.14;95.68;97168.56;30002;983;1876;-58
2022/04/27 00:29:49;;;;;;;;;;;;;;;6.13;95.47;97166.94;30002;982;1876;-57
2022/04/27 00:30:20;;;;;;;;;;;;;;;6.13;95.73;97165.06;30002;982;1876;-58
2022/04/27 00:30:52;;;;;;;;;;;;;;;6.13;95.46;97162.38;30002;982;1877;-58
2022/04/27 00:31:25;;;;;;;;;;;;;;;6.12;95.55;97159.94;30002;982;1855;-58
2022/04/27 00:31:56;;;;;;;;;;;;;;;6.13;95.64;97161.56;30002;982;1872;-58
2022/04/27 00:32:27;;;;;;;;;;;;;;;6.11;95.63;97163.69;30002;982;1877;-58
2022/04/27 00:33:01;;;;;;;;;;;;;;;6.09;95.81;97160.44;30002;983;1876;-58
2022/04/27 00:33:32;;;;;;;;;;;;;;;6.08;95.99;97162.31;30002;983;1876;-57
2022/04/27 00:34:03;;;;;;;;;;;;;;;6.09;95.73;97165.84;30002;983;1876;-58
2022/04/27 00:34:34;;;;;;;;;;;;;;;6.10;95.62;97162.06;30002;983;1854;-58
2022/04/27 00:35:08;;;;;;;;;;;;;;;6.07;95.60;97162.59;30002;983;1872;-57
2022/04/27 00:35:39;;;;;;;;;;;;;;;6.04;95.82;97169.28;30002;983;1876;-58
2022/04/27 00:36:09;;;;;;;;;;;;;;;6.04;95.82;97170.09;30002;983;1876;-57
2022/04/27 00:36:43;;;;;;;;;;;;;;;6.03;95.71;97173.87;30002;983;1876;-60
2022/04/27 00:37:14;;;;;;;;;;;;;;;6.04;96.04;97164.72;30002;982;1876;-59
2022/04/27 00:37:45;;;;;;;;;;;;;;;6.02;96.08;97166.03;30002;982;1876;-57
2022/04/27 00:38:16;;;;;;;;;;;;;;;6.04;96.15;97161.22;30002;982;1876;-57
2022/04/27 00:38:47;;;;;;;;;;;;;;;6.01;96.44;97165.22;30002;982;1877;-60
2022/04/27 00:39:18;;;;;;;;;;;;;;;6.00;96.37;97166.28;30002;982;1855;-59
2022/04/27 00:39:49;;;;;;;;;;;;;;;6.01;96.58;97169.81;30002;983;1871;-59
2022/04/27 00:40:22;;;;;;;;;;;;;;;6.02;96.39;97166.84;30002;983;1876;-61
2022/04/27 00:40:53;;;;;;;;;;;;;;;6.01;96.35;97170.63;30002;983;1876;-61
2022/04/27 00:41:24;;;;;;;;;;;;;;;6.02;96.25;97171.44;30002;983;1876;-57
2022/04/27 00:42:02;;;;;;;;;;;;;;;6.00;96.25;97176.25;30002;983;1876;-60
2022/04/27 00:42:32;;;;;;;;;;;;;;;5.99;96.11;97178.16;30002;983;1876;-59
2022/04/27 00:43:03;;;;;;;;;;;;;;;5.99;96.39;97178.16;30002;983;1876;-60
2022/04/27 00:43:41;;;;;;;;;;;;;;;5.97;96.26;97169.50;30002;983;1876;-60
2022/04/27 00:44:12;;;;;;;;;;;;;;;5.96;96.19;97173.25;30002;983;1876;-57
2022/04/27 00:44:46;;;;;;;;;;;;;;;5.95;96.22;97170.81;30002;982;1854;-60
2022/04/27 00:45:17;;;;;;;;;;;;;;;5.94;96.29;97172.72;30002;982;1872;-61
2022/04/27 00:45:48;;;;;;;;;;;;;;;5.95;95.97;97170.81;30002;982;1876;-57
2022/04/27 00:46:19;;;;;;;;;;;;;;;5.94;96.19;97175.41;30002;982;1877;-61
2022/04/27 00:46:49;;;;;;;;;;;;;;;5.93;96.37;97171.06;30002;982;1877;-60
2022/04/27 00:47:20;;;;;;;;;;;;;;;5.91;96.39;97167.81;30002;983;1783;-60
2022/04/27 00:47:51;;;;;;;;;;;;;;;5.91;96.50;97175.91;30002;983;1854;-57
2022/04/27 00:48:22;;;;;;;;;;;;;;;5.92;96.61;97166.75;30002;983;1871;-61
2022/04/27 00:48:53;;;;;;;;;;;;;;;5.93;96.30;97173.78;30002;983;1876;-59
2022/04/27 00:49:25;;;;;;;;;;;;;;;5.93;96.42;97168.38;30002;983;1876;-61
2022/04/27 00:49:57;;;;;;;;;;;;;;;5.93;96.44;97171.06;30002;983;1876;-60
2022/04/27 00:50:29;;;;;;;;;;;;;;;5.90;96.48;97174.28;30002;983;1876;-59
2022/04/27 00:51:01;;;;;;;;;;;;;;;5.88;96.46;97171.03;30002;983;1876;-59
2022/04/27 00:51:32;;;;;;;;;;;;;;;5.87;96.39;97172.09;30002;983;1854;-59
2022/04/27 00:52:04;;;;;;;;;;;;;;;5.86;96.72;97172.34;30002;983;1872;-60
2022/04/27 00:52:41;;;;;;;;;;;;;;;5.86;96.66;97173.16;30002;982;1876;-57
2022/04/27 00:53:12;;;;;;;;;;;;;;;5.87;96.56;97169.41;30002;982;1876;-60
2022/04/27 00:53:43;;;;;;;;;;;;;;;5.86;96.76;97173.16;30002;982;1876;-57
2022/04/27 00:54:15;;;;;;;;;;;;;;;5.86;96.60;97170.47;30002;982;1877;-60
2022/04/27 00:54:50;;;;;;;;;;;;;;;5.86;96.81;97173.16;30002;983;1876;-57
2022/04/27 00:55:21;;;;;;;;;;;;;;;5.86;96.70;97166.97;30002;983;1876;-60
2022/04/27 00:55:52;;;;;;;;;;;;;;;5.88;96.88;97170.22;30002;983;1876;-60
2022/04/27 00:56:23;;;;;;;;;;;;;;;5.88;96.64;97179.09;30002;983;1876;-60
2022/04/27 00:56:55;;;;;;;;;;;;;;;5.88;96.73;97170.22;30002;983;1854;-58
2022/04/27 00:57:26;;;;;;;;;;;;;;;5.89;96.80;97172.66;30002;983;1872;-60
2022/04/27 00:57:59;;;;;;;;;;;;;;;5.91;97.01;97175.91;30002;983;1876;-61
2022/04/27 00:58:30;;;;;;;;;;;;;;;5.91;96.81;97175.91;30002;983;1876;-59
2022/04/27 00:59:01;;;;;;;;;;;;;;;5.91;96.87;97170.53;30002;983;1876;-59
2022/04/27 00:59:32;;;;;;;;;;;;;;;5.89;96.70;97172.66;30002;983;1876;-60
2022/04/27 01:00:03;;;;;;;;;;;;;;;5.91;96.82;97177.78;30002;982;1876;-60
2022/04/27 01:00:34;;;;;;;;;;;;;;;5.91;97.02;97175.09;30002;982;1877;-61
2022/04/27 01:01:05;;;;;;;;;;;;;;;5.90;96.77;97176.97;30002;982;1854;-57
2022/04/27 01:01:35;;;;;;;;;;;;;;;5.91;96.80;97175.91;30002;982;1872;-60
2022/04/27 01:02:07;;;;;;;;;;;;;;;5.92;96.72;97177.53;30002;982;1855;-60
2022/04/27 01:02:38;;;;;;;;;;;;;;;5.92;96.71;97185.62;30002;983;1871;-60
2022/04/27 01:03:08;;;;;;;;;;;;;;;5.92;96.95;97172.16;30002;975;1893;-60
2022/04/27 01:03:40;;;;;;;;;;;;;;;5.91;97.38;97175.91;30002;983;1876;-59
2022/04/27 01:04:12;;;;;;;;;;;;;;;5.91;97.38;97175.09;30002;983;1876;-59
2022/04/27 01:04:42;;;;;;;;;;;;;;;5.91;97.23;97175.91;30002;983;1876;-60
2022/04/27 01:05:13;;;;;;;;;;;;;;;5.91;97.32;97170.53;30002;983;1876;-60
2022/04/27 01:05:45;;;;;;;;;;;;;;;5.91;97.15;97175.91;30002;983;1876;-60
2022/04/27 01:06:15;;;;;;;;;;;;;;;5.89;97.50;97174.56;30002;983;1876;-60
2022/04/27 01:06:50;;;;;;;;;;;;;;;5.90;97.17;97179.66;30002;982;1876;-57
2022/04/27 01:07:21;;;;;;;;;;;;;;;5.90;97.39;97179.66;30002;982;1854;-59
2022/04/27 01:07:53;;;;;;;;;;;;;;;5.91;97.26;97186.69;30002;982;1872;-60
2022/04/27 01:08:23;;;;;;;;;;;;;;;5.91;97.37;97175.91;30002;982;1877;-60
2022/04/27 01:08:54;;;;;;;;;;;;;;;5.91;97.37;97180.47;30002;982;1877;-60
2022/04/27 01:09:28;;;;;;;;;;;;;;;5.91;97.16;97184.00;30002;982;1875;-60
2022/04/27 01:10:00;;;;;;;;;;;;;;;5.90;97.31;97179.66;30002;983;1876;-59
2022/04/27 01:10:32;;;;;;;;;;;;;;;5.92;97.38;97177.53;30002;983;1876;-56
2022/04/27 01:11:03;;;;;;;;;;;;;;;5.92;97.34;97180.22;30002;983;1854;-59
2022/04/27 01:11:34;;;;;;;;;;;;;;;5.93;97.47;97184.53;30002;983;1872;-57
2022/04/27 01:12:06;;;;;;;;;;;;;;;5.93;97.36;97184.53;30002;983;1876;-56
2022/04/27 01:12:36;;;;;;;;;;;;;;;5.94;97.41;97186.19;30002;983;1876;-59
2022/04/27 01:13:08;;;;;;;;;;;;;;;5.94;97.01;97185.34;30002;983;1876;-59
2022/04/27 01:13:38;;;;;;;;;;;;;;;5.95;97.31;97193.19;30002;983;1876;-61
2022/04/27 01:14:09;;;;;;;;;;;;;;;5.94;96.99;97194.25;30002;982;1876;-58
2022/04/27 01:14:42;;;;;;;;;;;;;;;5.93;97.27;97192.62;30002;982;1876;-60
2022/04/27 01:15:28;;;;;;;;;;;;;;;5.92;96.95;97193.69;30002;982;1876;-59
2022/04/27 01:15:59;;;;;;;;;;;;;;;5.92;97.10;97188.31;30002;972;1871;-60
2022/04/27 01:16:30;;;;;;;;;;;;;;;5.92;97.20;97192.88;30002;982;1872;-61
2022/04/27 01:17:01;;;;;;;;;;;;;;;5.92;97.51;97187.50;30002;982;1877;-57
2022/04/27 01:17:31;;;;;;;;;;;;;;;5.92;97.39;97188.31;30002;983;1876;-60
2022/04/27 01:18:03;;;;;;;;;;;;;;;5.91;97.39;97192.06;30002;983;1876;-61
2022/04/27 01:18:34;;;;;;;;;;;;;;;5.90;97.28;97187.75;30002;983;1876;-59
2022/04/27 01:19:05;;;;;;;;;;;;;;;5.91;97.32;97197.44;30002;983;1876;-59
2022/04/27 01:19:37;;;;;;;;;;;;;;;5.92;97.23;97193.69;30002;983;1876;-60
2022/04/27 01:20:08;;;;;;;;;;;;;;;5.92;97.39;97192.88;30001;983;1876;-60
2022/04/27 01:20:44;;;;;;;;;;;;;;;5.93;97.10;97195.31;30001;983;1876;-61
2022/04/27 01:21:16;;;;;;;;;;;;;;;5.93;97.15;97195.31;30001;983;1854;-61
2022/04/27 01:21:47;;;;;;;;;;;;;;;5.94;97.51;97194.25;30002;982;1850;-60
2022/04/27 01:22:18;;;;;;;;;;;;;;;5.96;97.50;97194.00;30001;982;1876;-61
2022/04/27 01:22:49;;;;;;;;;;;;;;;5.95;97.52;97187.78;30001;982;1876;-60
2022/04/27 01:23:20;;;;;;;;;;;;;;;5.98;97.45;97192.69;30001;982;1877;-60
2022/04/27 01:23:50;;;;;;;;;;;;;;;5.97;97.33;97191.06;30001;982;1877;-60
2022/04/27 01:24:24;;;;;;;;;;;;;;;5.98;97.35;97189.16;30001;982;1877;-61
2022/04/27 01:24:57;;;;;;;;;;;;;;;5.98;97.75;97187.28;30001;983;1876;-60
2022/04/27 01:25:28;;;;;;;;;;;;;;;6.00;97.80;97187.03;30001;983;1854;-60
2022/04/27 01:26:06;;;;;;;;;;;;;;;6.00;97.89;97190.53;30001;983;1871;-59
2022/04/27 01:26:39;;;;;;;;;;;;;;;5.99;97.76;97188.91;30001;983;1876;-59
2022/04/27 01:27:10;;;;;;;;;;;;;;;5.98;97.92;97189.97;30001;983;1876;-57
2022/04/27 01:27:42;;;;;;;;;;;;;;;5.99;97.98;97190.78;30001;983;1876;-60
2022/04/27 01:28:14;;;;;;;;;;;;;;;5.98;97.94;97192.69;30001;983;1876;-60
2022/04/27 01:28:45;;;;;;;;;;;;;;;5.99;97.98;97188.09;30001;983;1876;-60
2022/04/27 01:29:17;;;;;;;;;;;;;;;5.99;97.79;97191.59;30001;982;1876;-59
2022/04/27 01:29:48;;;;;;;;;;;;;;;5.98;98.01;97192.69;30001;982;1876;-59
2022/04/27 01:30:19;;;;;;;;;;;;;;;5.97;98.10;97191.06;30001;982;1876;-59
2022/04/27 01:30:58;;;;;;;;;;;;;;;5.97;97.92;97191.06;30001;982;1855;-60
2022/04/27 01:31:28;;;;;;;;;;;;;;;5.97;97.83;97191.06;30001;982;1850;-59
2022/04/27 01:32:01;;;;;;;;;;;;;;;5.97;98.02;97196.44;30001;982;1877;-60
2022/04/27 01:32:32;;;;;;;;;;;;;;;5.97;97.98;97196.44;30001;983;1876;-61
2022/04/27 01:33:07;;;;;;;;;;;;;;;5.97;98.04;97190.25;30001;983;1876;-59
2022/04/27 01:33:38;;;;;;;;;;;;;;;5.98;97.65;97192.69;30001;983;1876;-59
2022/04/27 01:34:09;;;;;;;;;;;;;;;5.96;97.91;97194.81;30001;983;1876;-60
2022/04/27 01:34:40;;;;;;;;;;;;;;;5.96;98.19;97194.81;30001;983;1854;-60
2022/04/27 01:35:11;;;;;;;;;;;;;;;5.96;97.75;97194.81;30001;983;1872;-59
2022/04/27 01:35:42;;;;;;;;;;;;;;;5.96;98.36;97194.00;30001;983;1876;-59
2022/04/27 01:36:15;;;;;;;;;;;;;;;5.96;98.31;97194.81;30001;983;1876;-59
2022/04/27 01:36:47;;;;;;;;;;;;;;;5.94;97.89;97196.94;30001;982;1854;-59
2022/04/27 01:38:09;;;;;;;;;;;;;;;5.94;98.21;97194.25;30001;982;1876;-61
2022/04/27 01:38:42;;;;;;;;;;;;;;;5.95;98.37;97198.56;30001;982;1877;-60
2022/04/27 01:39:13;;;;;;;;;;;;;;;5.94;98.44;97190.75;30001;983;1876;-61
2022/04/27 01:39:43;;;;;;;;;;;;;;;5.95;98.36;97197.75;30001;983;1876;-59
2022/04/27 01:40:14;;;;;;;;;;;;;;;5.96;98.14;97194.00;30002;983;1801;-59
2022/04/27 01:40:52;;;;;;;;;;;;;;;5.96;98.18;97196.69;30001;983;1854;-59
2022/04/27 01:41:23;;;;;;;;;;;;;;;5.96;98.07;97194.81;30001;983;1871;-60
2022/04/27 01:41:53;;;;;;;;;;;;;;;5.97;98.34;97196.44;30001;983;1876;-59
2022/04/27 01:42:30;;;;;;;;;;;;;;;5.98;98.42;97200.75;30001;983;1876;-60
2022/04/27 01:43:02;;;;;;;;;;;;;;;5.98;98.33;97192.69;30001;983;1876;-61
2022/04/27 01:43:33;;;;;;;;;;;;;;;6.00;98.08;97195.13;30001;983;1876;-62
2022/04/27 01:44:05;;;;;;;;;;;;;;;6.01;98.09;97194.88;30001;983;1876;-59
2022/04/27 01:44:37;;;;;;;;;;;;;;;6.01;98.11;97197.56;30001;982;1876;-59
2022/04/27 01:45:09;;;;;;;;;;;;;;;6.01;97.92;97197.56;30001;982;1876;-59
2022/04/27 01:45:39;;;;;;;;;;;;;;;6.01;97.82;97197.56;30001;982;1876;-59
2022/04/27 01:46:10;;;;;;;;;;;;;;;6.00;97.87;97201.31;30001;982;1855;-60
2022/04/27 01:46:41;;;;;;;;;;;;;;;5.97;97.66;97196.44;30001;983;1849;-60
2022/04/27 01:47:12;;;;;;;;;;;;;;;5.97;97.71;97195.63;30001;983;1876;-59
2022/04/27 01:47:43;;;;;;;;;;;;;;;5.98;97.60;97191.88;30001;983;1876;-59
2022/04/27 01:48:13;;;;;;;;;;;;;;;5.99;97.73;97194.31;30001;983;1876;-59
2022/04/27 01:48:44;;;;;;;;;;;;;;;5.99;97.46;97199.69;30001;983;1876;-60
2022/04/27 01:49:15;;;;;;;;;;;;;;;6.00;97.60;97193.22;30001;983;1876;-59
2022/04/27 01:49:47;;;;;;;;;;;;;;;6.03;97.22;97194.59;30001;983;1876;-60
2022/04/27 01:50:18;;;;;;;;;;;;;;;6.04;97.30;97191.66;30001;983;1876;-60
2022/04/27 01:50:49;;;;;;;;;;;;;;;6.05;97.20;97195.97;30001;983;1876;-60
2022/04/27 01:54:14;;;;;;;;;;;;;;;6.07;97.54;97194.91;30001;983;1876;-60
2022/04/27 01:54:37;;;;;;;;;;;;;;;6.11;97.54;97196.03;30001;983;1876;-57
2022/04/27 01:55:08;;;;;;;;;;;;;;;6.12;97.42;97192.25;30001;983;1876;-59
2022/04/27 01:55:39;;;;;;;;;;;;;;;6.13;97.32;97193.88;30001;983;1854;-60
2022/04/27 01:56:10;;;;;;;;;;;;;;;6.13;97.29;97199.28;30001;983;1872;-60
2022/04/27 01:56:45;;;;;;;;;;;;;;;6.14;97.56;97200.91;30001;983;1876;-60
2022/04/27 01:57:15;;;;;;;;;;;;;;;6.13;97.24;97199.28;30001;983;1876;-60
2022/04/27 01:57:48;;;;;;;;;;;;;;;6.13;97.28;97202.78;30001;983;1876;-60
2022/04/27 01:58:19;;;;;;;;;;;;;;;6.14;97.46;97200.91;30001;983;1876;-60
2022/04/27 01:58:50;;;;;;;;;;;;;;;6.14;97.25;97196.31;30001;983;1854;-61
2022/04/27 01:59:20;;;;;;;;;;;;;;;6.14;97.22;97192.81;30001;982;1872;-60
2022/04/27 01:59:51;;;;;;;;;;;;;;;6.14;97.25;97200.91;30001;982;1877;-59
2022/04/27 02:00:22;;;;;;;;;;;;;;;6.14;97.16;97199.03;30001;982;1876;-60
2022/04/27 02:00:53;;;;;;;;;;;;;;;6.13;97.43;97194.69;30001;982;1876;-60
2022/04/27 02:01:25;;;;;;;;;;;;;;;6.13;97.26;97205.47;30001;982;1855;-61
2022/04/27 02:01:58;;;;;;;;;;;;;;;6.14;97.27;97206.28;30001;983;1871;-60
2022/04/27 02:02:29;;;;;;;;;;;;;;;6.13;97.04;97199.28;30001;983;1876;-60
2022/04/27 02:03:00;;;;;;;;;;;;;;;6.13;97.36;97210.06;30001;983;1876;-60
2022/04/27 02:03:31;;;;;;;;;;;;;;;6.11;97.30;97204.09;30001;983;1876;-59
2022/04/27 02:04:01;;;;;;;;;;;;;;;6.10;97.63;97205.19;30001;983;1876;-59
2022/04/27 02:04:32;;;;;;;;;;;;;;;6.09;97.84;97198.97;30001;983;1854;-59
2022/04/27 02:05:04;;;;;;;;;;;;;;;6.09;97.75;97198.16;30001;983;1872;-59
2022/04/27 02:05:35;;;;;;;;;;;;;;;6.08;97.90;97201.91;30001;983;1876;-61
2022/04/27 02:06:06;;;;;;;;;;;;;;;6.08;97.78;97197.34;30001;983;1876;-60
2022/04/27 02:06:37;;;;;;;;;;;;;;;6.09;97.63;97196.28;30001;983;1876;-60
2022/04/27 02:07:08;;;;;;;;;;;;;;;6.10;97.63;97199.78;30001;982;1854;-59
2022/04/27 02:07:39;;;;;;;;;;;;;;;6.10;97.70;97194.41;30001;982;1872;-60
2022/04/27 02:08:11;;;;;;;;;;;;;;;6.10;97.84;97200.59;30001;982;1877;-59
2022/04/27 02:08:41;;;;;;;;;;;;;;;6.10;97.80;97194.41;30001;982;1877;-59
2022/04/27 02:09:12;;;;;;;;;;;;;;;6.09;97.67;97198.97;30001;982;1877;-60
2022/04/27 02:09:43;;;;;;;;;;;;;;;6.09;97.56;97196.28;30001;983;1876;-60
2022/04/27 02:10:14;;;;;;;;;;;;;;;6.10;98.02;97199.78;30001;983;1876;-60
2022/04/27 02:10:45;;;;;;;;;;;;;;;6.10;97.82;97189.00;30001;983;1876;-60
2022/04/27 02:11:16;;;;;;;;;;;;;;;6.10;97.91;97191.72;30001;983;1876;-61
2022/04/27 02:11:47;;;;;;;;;;;;;;;6.11;97.96;97196.84;30001;983;1854;-60
2022/04/27 02:12:17;;;;;;;;;;;;;;;6.11;98.29;97196.03;30001;983;1872;-60
2022/04/27 02:12:48;;;;;;;;;;;;;;;6.10;98.08;97194.41;30001;983;1876;-61
2022/04/27 02:13:19;;;;;;;;;;;;;;;6.07;98.18;97195.72;30001;983;1876;-60
2022/04/27 02:13:54;;;;;;;;;;;;;;;6.07;97.93;97197.59;30001;962;1796;-60
2022/04/27 02:14:25;;;;;;;;;;;;;;;6.08;98.16;97204.63;30001;982;1876;-60
2022/04/27 02:14:56;;;;;;;;;;;;;;;6.08;98.03;97201.91;30001;982;1876;-59
2022/04/27 02:15:27;;;;;;;;;;;;;;;6.08;98.18;97199.22;30001;982;1877;-61
2022/04/27 02:16:00;;;;;;;;;;;;;;;6.10;97.99;97197.09;30001;982;1877;-60
2022/04/27 02:16:35;;;;;;;;;;;;;;;6.09;98.04;97198.97;30001;982;1877;-60
2022/04/27 02:17:13;;;;;;;;;;;;;;;6.12;98.12;97200.34;30001;983;1854;-60
2022/04/27 02:17:45;;;;;;;;;;;;;;;6.13;98.13;97200.09;30001;983;1850;-60
2022/04/27 02:18:19;;;;;;;;;;;;;;;6.13;98.10;97204.66;30001;983;1876;-61
2022/04/27 02:18:50;;;;;;;;;;;;;;;6.13;98.21;97199.28;30001;983;1876;-60
2022/04/27 02:19:21;;;;;;;;;;;;;;;6.13;98.06;97205.47;30001;983;1876;-61
2022/04/27 02:19:52;;;;;;;;;;;;;;;6.14;98.18;97200.91;30001;983;1876;-59
2022/04/27 02:20:23;;;;;;;;;;;;;;;6.15;97.95;97202.53;30001;983;1876;-61
2022/04/27 02:20:56;;;;;;;;;;;;;;;6.15;98.27;97202.53;30001;983;1876;-60
2022/04/27 02:21:27;;;;;;;;;;;;;;;6.15;98.13;97207.91;30001;982;1876;-61
2022/04/27 02:21:58;;;;;;;;;;;;;;;6.17;98.24;97200.41;30001;982;1876;-60
2022/04/27 02:22:29;;;;;;;;;;;;;;;6.17;98.02;97203.09;30001;982;1855;-60
2022/04/27 02:23:00;;;;;;;;;;;;;;;6.18;98.02;97204.72;30001;982;1872;-60
2022/04/27 02:23:31;;;;;;;;;;;;;;;6.20;98.00;97206.09;30001;982;1877;-59
2022/04/27 02:24:02;;;;;;;;;;;;;;;6.21;97.79;97212.28;30001;982;1877;-60
2022/04/27 02:24:33;;;;;;;;;;;;;;;6.21;97.67;97199.62;30001;983;1876;-61
2022/04/27 02:25:05;;;;;;;;;;;;;;;6.22;97.75;97197.75;30001;983;1876;-60
2022/04/27 02:25:36;;;;;;;;;;;;;;;6.23;97.61;97207.44;30001;983;1876;-59
2022/04/27 02:26:07;;;;;;;;;;;;;;;6.23;97.73;97204.75;30001;983;1854;-61
2022/04/27 02:26:37;;;;;;;;;;;;;;;6.27;97.37;97197.75;30001;983;1872;-60
2022/04/27 02:27:08;;;;;;;;;;;;;;;6.28;97.34;97202.06;30001;983;1876;-61
2022/04/27 02:27:39;;;;;;;;;;;;;;;6.29;97.28;97201.81;30001;976;1890;-59
2022/04/27 02:28:11;;;;;;;;;;;;;;;6.29;97.19;97203.69;30001;983;1876;-61
2022/04/27 02:28:41;;;;;;;;;;;;;;;6.32;96.76;97198.63;30001;982;1876;-59
2022/04/27 02:29:15;;;;;;;;;;;;;;;6.33;96.62;97202.13;30001;982;1876;-60
2022/04/27 02:29:46;;;;;;;;;;;;;;;6.33;96.53;97196.72;30001;982;1876;-60
2022/04/27 02:30:18;;;;;;;;;;;;;;;6.33;96.35;97210.22;30001;982;1877;-60
2022/04/27 02:30:49;;;;;;;;;;;;;;;6.33;96.31;97204.81;30001;982;1877;-59
2022/04/27 02:31:20;;;;;;;;;;;;;;;6.33;96.45;97207.50;30001;982;1855;-58
2022/04/27 02:31:51;;;;;;;;;;;;;;;6.33;96.17;97208.31;30001;982;1872;-61
2022/04/27 02:32:22;;;;;;;;;;;;;;;6.33;96.29;97211.03;30001;983;1876;-59
2022/04/27 02:32:53;;;;;;;;;;;;;;;6.33;96.22;97204.81;30001;983;1876;-60
2022/04/27 02:33:24;;;;;;;;;;;;;;;6.33;96.22;97210.22;30001;983;1876;-60
2022/04/27 02:33:55;;;;;;;;;;;;;;;6.33;96.08;97210.22;30001;983;1876;-60
2022/04/27 02:34:26;;;;;;;;;;;;;;;6.34;96.31;97204.56;30001;983;1876;-60
2022/04/27 02:34:56;;;;;;;;;;;;;;;6.34;96.21;97206.44;30001;983;1876;-61
2022/04/27 02:35:28;;;;;;;;;;;;;;;6.39;96.35;97209.19;30001;983;1876;-61
2022/04/27 02:35:58;;;;;;;;;;;;;;;6.41;96.02;97212.44;30001;983;1876;-61
2022/04/27 02:36:29;;;;;;;;;;;;;;;6.41;95.86;97212.44;30001;982;1854;-60
2022/04/27 02:37:00;;;;;;;;;;;;;;;6.41;95.36;97212.44;30001;982;1872;-60
2022/04/27 02:37:31;;;;;;;;;;;;;;;6.41;95.45;97217.81;30001;982;1855;-59
2022/04/27 02:38:02;;;;;;;;;;;;;;;6.42;95.39;97221.31;30001;982;1872;-61
2022/04/27 02:38:36;;;;;;;;;;;;;;;6.44;95.46;97211.91;30001;982;1877;-62
2022/04/27 02:39:07;;;;;;;;;;;;;;;6.51;95.31;97214.41;30001;982;1877;-62
2022/04/27 02:39:37;;;;;;;;;;;;;;;6.53;95.07;97214.94;30001;983;1876;-61
2022/04/27 02:40:10;;;;;;;;;;;;;;;6.57;94.56;97208.78;30001;983;1876;-62
2022/04/27 02:40:41;;;;;;;;;;;;;;;6.59;94.20;97214.69;30001;983;1876;-60
2022/04/27 02:41:11;;;;;;;;;;;;;;;6.57;94.19;97211.47;30001;983;1876;-60
2022/04/27 02:41:42;;;;;;;;;;;;;;;6.54;94.16;97206.59;30001;983;1876;-60
2022/04/27 02:42:13;;;;;;;;;;;;;;;6.53;93.98;97215.75;30001;983;1876;-57
2022/04/27 02:42:44;;;;;;;;;;;;;;;6.52;94.16;97219.53;30001;983;1854;-60
2022/04/27 02:43:15;;;;;;;;;;;;;;;6.51;94.36;97217.09;30001;987;1868;-60
2022/04/27 02:43:46;;;;;;;;;;;;;;;6.49;94.43;97209.25;30001;982;1876;-61
2022/04/27 02:44:17;;;;;;;;;;;;;;;6.49;94.49;97214.66;30001;982;1876;-59
2022/04/27 02:44:48;;;;;;;;;;;;;;;6.46;94.71;97215.16;30001;982;1876;-59
2022/04/27 02:45:19;;;;;;;;;;;;;;;6.46;94.58;97212.47;30001;982;1876;-59
2022/04/27 02:45:50;;;;;;;;;;;;;;;6.45;94.70;97213.53;30001;982;1877;-60
2022/04/27 02:46:21;;;;;;;;;;;;;;;6.45;94.81;97207.34;30001;983;1854;-59
2022/04/27 02:46:52;;;;;;;;;;;;;;;6.45;94.93;97213.53;30001;983;1871;-57
2022/04/27 02:47:23;;;;;;;;;;;;;;;6.44;94.91;97217.31;30001;983;1876;-60
2022/04/27 02:47:53;;;;;;;;;;;;;;;6.44;95.08;97206.53;30001;983;1876;-60
2022/04/27 02:48:24;;;;;;;;;;;;;;;6.44;95.26;97211.09;30001;983;1876;-61
2022/04/27 02:52:13;;;;;;;;;;;;;;;6.44;95.73;97211.91;30001;982;1872;-60
2022/04/27 02:52:46;;;;;;;;;;;;;;;6.42;95.59;97208.66;30001;982;1876;-60
2022/04/27 02:53:17;;;;;;;;;;;;;;;6.43;95.66;97214.88;30001;982;1877;-61
2022/04/27 02:53:50;;;;;;;;;;;;;;;6.42;95.69;97214.06;30001;983;1876;-60
2022/04/27 02:54:22;;;;;;;;;;;;;;;6.43;95.83;97214.88;30001;983;1876;-61
2022/04/27 02:54:52;;;;;;;;;;;;;;;6.43;95.73;97214.88;30001;983;1876;-58
2022/04/27 02:55:23;;;;;;;;;;;;;;;6.43;95.85;97218.37;30001;983;1876;-60
2022/04/27 02:55:54;;;;;;;;;;;;;;;6.41;95.92;97215.12;30001;983;1876;-59
2022/04/27 02:56:25;;;;;;;;;;;;;;;6.41;96.01;97211.63;30001;983;1854;-59
2022/04/27 02:56:56;;;;;;;;;;;;;;;6.40;96.18;97205.41;30001;983;1872;-60
2022/04/27 02:57:27;;;;;;;;;;;;;;;6.40;96.48;97216.19;30001;983;1876;-60
2022/04/27 02:57:57;;;;;;;;;;;;;;;6.37;96.34;97211.31;30001;983;1876;-59